Time;durP1;ratioP1;P1;durP2;ratioP2;P2;SDS_P1;SDS_P2;PMS_P1;PMS_P2;Temp;Humidity;BMP_temperature;BMP_pressure;BME280_temperature;BME280_humidity;BME280_pressure;Samples;Min_cycle;Max_cycle;Signal;HPM_P1;HPM_P2
2023/08/18 00:01:47;;;;;;;10.55;6.00;;;24.60;99.90;;;;;;5097586;27;20427;-71
2023/08/18 00:04:13;;;;;;;10.38;6.57;;;24.50;99.90;;;;;;5080160;28;20412;-71
2023/08/18 00:06:39;;;;;;;10.45;7.10;;;24.50;99.90;;;;;;5102369;27;20418;-71
2023/08/18 00:09:05;;;;;;;11.60;7.13;;;24.50;99.90;;;;;;5084169;28;20408;-71
2023/08/18 00:11:32;;;;;;;10.70;7.50;;;24.50;99.90;;;;;;5089080;27;20436;-71
2023/08/18 00:13:58;;;;;;;14.00;8.23;;;24.50;99.90;;;;;;5086136;28;20780;-71
2023/08/18 00:16:24;;;;;;;12.90;8.05;;;24.50;99.90;;;;;;5100724;27;20992;-72
2023/08/18 00:18:50;;;;;;;13.70;8.70;;;24.60;99.90;;;;;;5087842;28;20396;-71
2023/08/18 00:21:17;;;;;;;12.48;8.60;;;24.60;99.90;;;;;;5081834;27;20415;-71
2023/08/18 00:23:44;;;;;;;14.40;8.95;;;24.60;99.90;;;;;;5071709;28;20388;-71
2023/08/18 00:26:10;;;;;;;12.70;9.25;;;24.60;99.90;;;;;;5096580;27;20785;-71
2023/08/18 00:28:36;;;;;;;11.85;8.70;;;24.50;99.90;;;;;;5111177;27;20463;-71
2023/08/18 00:31:03;;;;;;;11.98;8.50;;;24.50;99.90;;;;;;5085118;27;20421;-71
2023/08/18 00:33:29;;;;;;;9.10;6.97;;;24.50;99.90;;;;;;5086040;27;20497;-71
2023/08/18 00:35:55;;;;;;;9.60;6.72;;;24.50;99.90;;;;;;5099638;27;20964;-71
2023/08/18 00:38:21;;;;;;;9.45;6.20;;;24.50;99.90;;;;;;5099880;27;20412;-71
2023/08/18 00:40:48;;;;;;;10.05;6.25;;;24.40;99.90;;;;;;5102401;27;20808;-71
2023/08/18 00:43:14;;;;;;;9.02;6.05;;;24.40;99.90;;;;;;5087074;28;20414;-71
2023/08/18 00:45:42;;;;;;;10.13;5.97;;;24.40;99.90;;;;;;5104446;27;20459;-71
2023/08/18 00:48:08;;;;;;;9.77;6.55;;;24.30;99.90;;;;;;5097115;27;20490;-71
2023/08/18 00:50:36;;;;;;;9.00;5.90;;;24.30;99.90;;;;;;5102443;27;20507;-71
2023/08/18 00:53:02;;;;;;;9.45;6.35;;;24.30;99.90;;;;;;5068092;28;20397;-71
2023/08/18 00:55:29;;;;;;;9.33;6.10;;;24.20;99.90;;;;;;5098624;27;20504;-71
2023/08/18 00:57:57;;;;;;;8.75;6.05;;;24.20;99.90;;;;;;5081898;28;20411;-71
2023/08/18 01:00:23;;;;;;;10.05;6.05;;;24.10;99.90;;;;;;5103527;28;22602;-71
2023/08/18 01:02:51;;;;;;;10.23;6.38;;;24.10;99.90;;;;;;5085624;28;20415;-72
2023/08/18 01:05:18;;;;;;;9.65;6.65;;;24.10;99.90;;;;;;5098621;28;20418;-71
2023/08/18 01:07:45;;;;;;;8.70;6.57;;;24.10;99.90;;;;;;5085976;28;20461;-71
2023/08/18 01:10:13;;;;;;;10.75;7.95;;;24.10;99.90;;;;;;5065898;28;20887;-71
2023/08/18 01:13:11;;;;;;;11.82;8.05;;;24.10;99.90;;;;;;5099688;28;20415;-71
2023/08/18 01:15:43;;;;;;;13.60;8.60;;;24.10;99.90;;;;;;5100359;28;20406;-71
2023/08/18 01:18:12;;;;;;;15.95;9.55;;;24.10;99.90;;;;;;5076146;28;20405;-71
2023/08/18 01:20:40;;;;;;;14.85;9.63;;;24.20;99.90;;;;;;5079559;28;20430;-71
2023/08/18 01:23:08;;;;;;;12.27;9.48;;;24.20;99.90;;;;;;5082715;28;20408;-71
2023/08/18 01:25:34;;;;;;;13.63;9.77;;;24.20;99.90;;;;;;5103526;28;20403;-71
2023/08/18 01:28:03;;;;;;;17.40;10.00;;;24.20;99.90;;;;;;5099005;28;20414;-71
2023/08/18 01:30:41;;;;;;;17.20;10.90;;;24.10;99.90;;;;;;5100161;28;20408;-71
2023/08/18 01:33:34;;;;;;;14.10;10.95;;;24.10;99.90;;;;;;5074429;28;20870;-71
2023/08/18 01:36:08;;;;;;;15.88;11.63;;;24.20;99.90;;;;;;5082074;28;20519;-71
2023/08/18 01:38:39;;;;;;;18.05;11.85;;;24.20;99.90;;;;;;5105334;28;20428;-72
2023/08/18 01:41:08;;;;;;;16.58;12.40;;;24.30;99.90;;;;;;5070684;28;20418;-71
2023/08/18 01:43:34;;;;;;;19.27;13.18;;;24.30;99.90;;;;;;5101898;28;20404;-71
2023/08/18 01:46:01;;;;;;;15.40;12.15;;;24.30;99.90;;;;;;5065995;28;20409;-71
2023/08/18 01:48:29;;;;;;;16.08;12.50;;;24.30;99.90;;;;;;5094779;28;20400;-71
2023/08/18 01:50:55;;;;;;;16.52;12.00;;;24.30;99.90;;;;;;5099679;28;20411;-71
2023/08/18 01:53:22;;;;;;;16.17;12.07;;;24.30;99.90;;;;;;5085346;28;20402;-71
2023/08/18 01:55:48;;;;;;;16.93;11.90;;;24.30;99.90;;;;;;5036933;27;1396375;-71
2023/08/18 01:58:14;;;;;;;13.40;11.52;;;24.30;99.90;;;;;;5099960;27;21053;-71
2023/08/18 02:00:40;;;;;;;15.25;10.38;;;24.30;99.90;;;;;;5080048;27;20895;-71
2023/08/18 02:03:08;;;;;;;12.20;9.63;;;24.30;99.90;;;;;;5097462;27;20927;-71
2023/08/18 02:05:39;;;;;;;15.30;9.75;;;24.30;99.90;;;;;;5096920;27;20409;-71
2023/08/18 02:08:07;;;;;;;12.43;9.88;;;24.30;99.90;;;;;;5083298;28;20451;-71
2023/08/18 02:10:33;;;;;;;13.97;10.10;;;24.20;99.90;;;;;;5081554;28;21125;-71
2023/08/18 02:12:59;;;;;;;12.68;10.23;;;24.20;99.90;;;;;;5100058;27;21128;-71
2023/08/18 02:15:26;;;;;;;15.07;11.10;;;24.20;99.90;;;;;;5080199;28;21080;-71
2023/08/18 02:17:52;;;;;;;13.30;10.00;;;24.10;99.90;;;;;;5070786;27;20390;-71
2023/08/18 02:20:20;;;;;;;13.57;10.30;;;24.10;99.90;;;;;;5080390;28;20412;-71
2023/08/18 02:22:46;;;;;;;14.38;10.50;;;24.10;99.90;;;;;;5101623;27;20453;-71
2023/08/18 02:25:12;;;;;;;14.50;10.07;;;24.00;99.90;;;;;;5081777;27;20397;-71
2023/08/18 02:27:38;;;;;;;15.57;9.70;;;24.00;99.90;;;;;;5071637;27;20399;-71
2023/08/18 02:30:05;;;;;;;10.65;9.07;;;23.90;99.90;;;;;;5080473;28;20481;-71
2023/08/18 02:32:32;;;;;;;15.02;9.95;;;23.80;99.90;;;;;;5103830;27;20444;-71
2023/08/18 02:34:58;;;;;;;13.18;10.02;;;23.80;99.90;;;;;;5084452;28;20938;-71
2023/08/18 02:37:25;;;;;;;13.93;10.43;;;23.90;99.90;;;;;;5066520;27;20400;-71
2023/08/18 02:39:51;;;;;;;13.90;9.57;;;23.90;99.90;;;;;;5077481;28;20825;-71
2023/08/18 02:42:19;;;;;;;13.30;9.47;;;23.90;99.90;;;;;;5101676;27;20739;-71
2023/08/18 02:44:46;;;;;;;14.83;9.27;;;23.80;99.90;;;;;;5098434;27;20488;-71
2023/08/18 02:47:13;;;;;;;13.37;9.33;;;23.80;99.90;;;;;;5070262;28;21151;-71
2023/08/18 02:49:40;;;;;;;12.60;9.23;;;23.80;99.90;;;;;;5073844;28;20422;-71
2023/08/18 02:52:07;;;;;;;15.15;9.32;;;23.80;99.90;;;;;;5080068;28;20502;-71
2023/08/18 02:54:34;;;;;;;14.60;9.45;;;23.80;99.90;;;;;;5101475;27;20447;-71
2023/08/18 02:57:00;;;;;;;12.45;8.95;;;23.80;99.90;;;;;;5086786;28;20408;-71
2023/08/18 02:59:27;;;;;;;13.57;8.88;;;23.80;99.90;;;;;;5100258;27;20939;-71
2023/08/18 03:01:54;;;;;;;12.43;8.77;;;23.80;99.90;;;;;;5079381;27;20493;-71
2023/08/18 03:04:21;;;;;;;17.77;9.43;;;23.80;99.90;;;;;;5071358;28;20784;-71
2023/08/18 03:06:47;;;;;;;15.23;9.20;;;23.80;99.90;;;;;;5096890;27;20605;-71
2023/08/18 03:09:14;;;;;;;14.23;9.07;;;23.70;99.90;;;;;;5077173;28;20439;-71
2023/08/18 03:11:40;;;;;;;14.13;8.70;;;23.70;99.90;;;;;;5082054;27;20422;-71
2023/08/18 03:14:07;;;;;;;17.10;8.65;;;23.70;99.90;;;;;;5093693;27;20414;-71
2023/08/18 03:16:34;;;;;;;10.77;8.15;;;23.70;99.90;;;;;;5100000;27;20413;-71
2023/08/18 03:19:00;;;;;;;12.65;8.00;;;23.70;99.90;;;;;;5103419;27;20920;-71
2023/08/18 03:21:27;;;;;;;11.32;7.75;;;23.60;99.90;;;;;;5068453;28;20408;-71
2023/08/18 03:23:53;;;;;;;11.60;8.05;;;23.70;99.90;;;;;;5084564;27;20406;-71
2023/08/18 03:26:21;;;;;;;12.10;7.90;;;23.60;99.90;;;;;;5080086;28;21088;-71
2023/08/18 03:28:49;;;;;;;11.85;7.72;;;23.60;99.90;;;;;;5080977;28;20465;-71
2023/08/18 03:31:16;;;;;;;12.13;7.88;;;23.70;99.90;;;;;;5094055;28;20512;-71
2023/08/18 03:33:56;;;;;;;11.45;7.68;;;23.70;99.90;;;;;;5101963;28;20509;-71
2023/08/18 03:36:25;;;;;;;13.50;7.67;;;23.70;99.90;;;;;;5081877;28;20493;-71
2023/08/18 03:38:52;;;;;;;11.65;7.70;;;23.60;99.90;;;;;;5101543;28;20403;-71
2023/08/18 03:41:18;;;;;;;10.80;7.90;;;23.70;99.90;;;;;;5078488;28;20431;-71
2023/08/18 03:43:44;;;;;;;11.77;7.88;;;23.70;99.90;;;;;;5096552;28;21155;-71
2023/08/18 03:46:23;;;;;;;10.73;8.35;;;23.70;99.90;;;;;;5096884;28;20505;-71
2023/08/18 03:48:51;;;;;;;12.90;8.27;;;23.70;99.90;;;;;;5068362;28;20418;-71
2023/08/18 03:51:18;;;;;;;14.13;8.50;;;23.70;99.90;;;;;;5096684;28;20815;-71
2023/08/18 03:53:44;;;;;;;20.73;8.95;;;23.70;99.90;;;;;;5066393;28;20561;-71
2023/08/18 03:56:14;;;;;;;22.23;9.48;;;23.70;99.90;;;;;;5064103;28;20405;-71
2023/08/18 03:58:40;;;;;;;19.00;8.52;;;23.70;99.90;;;;;;5099471;28;20402;-71
2023/08/18 04:01:08;;;;;;;17.48;9.02;;;23.80;99.90;;;;;;5097610;28;20411;-71
2023/08/18 04:03:38;;;;;;;16.00;9.00;;;23.80;99.90;;;;;;5086655;28;20412;-71
2023/08/18 04:06:05;;;;;;;15.75;9.13;;;23.80;99.90;;;;;;5093381;28;20410;-71
2023/08/18 04:08:40;;;;;;;15.43;9.98;;;23.80;99.90;;;;;;5080119;28;21419;-71
2023/08/18 04:11:06;;;;;;;15.80;9.00;;;23.90;99.90;;;;;;5097293;28;20491;-70
2023/08/18 04:13:33;;;;;;;12.97;9.60;;;23.90;99.90;;;;;;5079625;28;20500;-71
2023/08/18 04:15:58;;;;;;;14.57;9.27;;;23.90;99.90;;;;;;5074883;28;20500;-70
2023/08/18 04:18:26;;;;;;;15.00;10.33;;;23.90;99.90;;;;;;5098302;28;20530;-70
2023/08/18 04:20:52;;;;;;;14.25;9.57;;;24.00;99.90;;;;;;5060738;28;20412;-70
2023/08/18 04:23:19;;;;;;;14.77;10.15;;;24.00;99.90;;;;;;5095316;28;20408;-71
2023/08/18 04:25:45;;;;;;;13.00;9.63;;;24.00;99.90;;;;;;5084495;28;20842;-70
2023/08/18 04:28:11;;;;;;;14.60;10.18;;;24.00;99.90;;;;;;5099359;28;20416;-70
2023/08/18 04:30:38;;;;;;;13.45;9.75;;;24.00;99.90;;;;;;5098413;28;20406;-71
2023/08/18 04:33:06;;;;;;;14.65;9.65;;;24.00;99.90;;;;;;5080707;28;20409;-71
2023/08/18 04:35:32;;;;;;;12.80;10.00;;;24.10;99.90;;;;;;5081807;28;20443;-71
2023/08/18 04:37:58;;;;;;;13.50;10.35;;;24.10;99.90;;;;;;5084723;28;20415;-70
2023/08/18 04:40:25;;;;;;;13.30;10.10;;;24.10;99.90;;;;;;5101757;27;20428;-71
2023/08/18 04:42:51;;;;;;;14.88;10.00;;;24.10;99.90;;;;;;5103453;27;20410;-71
2023/08/18 04:45:18;;;;;;;14.98;9.60;;;24.10;99.90;;;;;;5098805;27;20404;-71
2023/08/18 04:47:45;;;;;;;12.00;9.93;;;24.20;99.90;;;;;;5102263;27;20446;-70
2023/08/18 04:50:14;;;;;;;12.68;9.73;;;24.20;99.90;;;;;;5082583;27;20471;-71
2023/08/18 04:52:40;;;;;;;13.02;9.65;;;24.20;99.90;;;;;;5087968;27;20461;-71
2023/08/18 04:55:07;;;;;;;15.27;9.93;;;24.20;99.90;;;;;;5103289;27;20505;-71
2023/08/18 04:57:33;;;;;;;12.80;10.00;;;24.30;99.90;;;;;;5084909;27;20439;-71
2023/08/18 05:00:00;;;;;;;13.88;11.15;;;24.30;99.90;;;;;;5087251;28;20870;-71
2023/08/18 05:02:30;;;;;;;15.80;11.32;;;24.30;99.90;;;;;;5066786;28;20394;-71
2023/08/18 05:04:56;;;;;;;14.35;11.18;;;24.40;99.90;;;;;;5101270;27;20513;-71
2023/08/18 05:07:22;;;;;;;14.70;11.73;;;24.40;99.90;;;;;;5101549;27;20415;-71
2023/08/18 05:09:48;;;;;;;15.18;11.63;;;24.50;99.90;;;;;;5081925;27;20412;-70
2023/08/18 05:12:15;;;;;;;17.67;12.00;;;24.50;99.90;;;;;;5097998;27;20413;-71
2023/08/18 05:14:41;;;;;;;19.98;12.93;;;24.60;99.90;;;;;;5098943;27;20758;-70
2023/08/18 05:17:09;;;;;;;17.00;13.52;;;24.60;99.90;;;;;;5100741;27;20712;-71
2023/08/18 05:19:35;;;;;;;16.85;13.23;;;24.70;99.90;;;;;;5098849;27;20409;-70
2023/08/18 05:22:01;;;;;;;18.65;14.27;;;24.80;99.90;;;;;;5104426;27;20419;-71
2023/08/18 05:24:28;;;;;;;18.35;14.73;;;24.80;99.90;;;;;;5101056;27;20423;-71
2023/08/18 05:26:55;;;;;;;20.05;14.48;;;24.80;99.90;;;;;;5098014;27;20419;-71
2023/08/18 05:29:21;;;;;;;18.23;14.13;;;24.90;99.90;;;;;;5109758;27;20404;-70
2023/08/18 05:31:48;;;;;;;16.23;13.10;;;24.90;99.90;;;;;;5088292;27;20409;-70
2023/08/18 05:34:15;;;;;;;16.15;12.95;;;24.90;99.90;;;;;;5102591;27;20428;-70
2023/08/18 05:36:41;;;;;;;16.03;12.90;;;25.00;99.90;;;;;;5081804;28;20414;-71
2023/08/18 05:39:08;;;;;;;16.02;12.82;;;25.00;99.90;;;;;;5088360;28;20404;-71
2023/08/18 05:41:34;;;;;;;16.92;13.63;;;25.10;99.90;;;;;;5098777;27;20604;-71
2023/08/18 05:44:00;;;;;;;19.50;13.18;;;25.10;99.90;;;;;;5080637;28;20463;-71
2023/08/18 05:46:27;;;;;;;16.45;12.80;;;25.10;99.90;;;;;;5099175;27;20416;-71
2023/08/18 05:48:53;;;;;;;19.25;13.05;;;25.10;99.90;;;;;;5082328;28;20731;-71
2023/08/18 05:51:19;;;;;;;16.70;13.00;;;25.20;99.90;;;;;;5079414;28;20790;-71
2023/08/18 05:53:46;;;;;;;22.30;15.80;;;25.20;99.90;;;;;;5086351;27;20412;-70
2023/08/18 05:56:12;;;;;;;23.13;16.17;;;25.30;99.90;;;;;;5082523;28;20432;-71
2023/08/18 05:58:38;;;;;;;20.08;16.48;;;25.40;99.90;;;;;;5102308;27;20406;-71
2023/08/18 06:01:04;;;;;;;24.85;19.70;;;25.50;99.90;;;;;;5061157;28;20409;-71
2023/08/18 06:03:31;;;;;;;27.40;20.25;;;25.50;99.90;;;;;;5099054;27;20428;-71
2023/08/18 06:06:01;;;;;;;25.35;20.92;;;25.60;99.90;;;;;;5093720;27;20407;-71
2023/08/18 06:08:27;;;;;;;24.88;20.23;;;25.70;99.90;;;;;;5098478;27;20408;-71
2023/08/18 06:10:56;;;;;;;23.52;20.40;;;25.80;99.90;;;;;;5080759;28;20584;-71
2023/08/18 06:13:22;;;;;;;25.77;20.77;;;25.90;99.90;;;;;;5079952;28;20461;-70
2023/08/18 06:15:52;;;;;;;24.95;20.45;;;25.90;99.90;;;;;;5096406;27;20444;-72
2023/08/18 06:18:19;;;;;;;26.75;21.92;;;26.00;99.90;;;;;;5082504;28;20419;-71
2023/08/18 06:20:50;;;;;;;24.30;21.70;;;26.00;99.90;;;;;;5064849;28;20411;-71
2023/08/18 06:23:17;;;;;;;23.70;20.08;;;26.00;99.90;;;;;;5080322;27;20408;-70
2023/08/18 06:25:43;;;;;;;23.08;20.20;;;26.10;99.90;;;;;;5084372;28;20472;-71
2023/08/18 06:28:09;;;;;;;22.55;19.10;;;26.10;99.90;;;;;;5067544;28;20408;-71
2023/08/18 06:30:35;;;;;;;26.27;19.90;;;26.20;99.90;;;;;;5096748;27;21050;-71
2023/08/18 06:33:02;;;;;;;24.53;19.67;;;26.20;99.90;;;;;;5078859;28;20476;-71
2023/08/18 06:35:30;;;;;;;26.48;19.65;;;26.30;99.90;;;;;;5094542;27;20424;-71
2023/08/18 06:37:56;;;;;;;23.93;19.60;;;26.30;99.90;;;;;;5094720;27;21120;-71
2023/08/18 06:40:22;;;;;;;23.10;18.63;;;26.30;99.90;;;;;;5064623;28;20404;-71
2023/08/18 06:42:49;;;;;;;22.13;18.90;;;26.40;99.90;;;;;;5097103;27;20502;-71
2023/08/18 06:45:15;;;;;;;25.85;19.75;;;26.40;99.90;;;;;;5096324;27;20776;-71
2023/08/18 06:47:43;;;;;;;23.30;19.60;;;26.50;99.90;;;;;;5061185;28;20440;-71
2023/08/18 06:50:09;;;;;;;24.20;19.07;;;26.50;99.90;;;;;;5080821;27;20408;-71
2023/08/18 06:52:36;;;;;;;26.48;18.80;;;26.60;99.90;;;;;;5072381;27;20780;-71
2023/08/18 06:55:04;;;;;;;22.63;19.65;;;26.60;99.90;;;;;;5098327;27;20442;-70
2023/08/18 06:57:30;;;;;;;22.30;19.48;;;26.60;99.90;;;;;;5098450;27;20428;-71
2023/08/18 06:59:57;;;;;;;27.23;19.63;;;26.70;99.90;;;;;;5076344;28;20410;-70
2023/08/18 07:02:23;;;;;;;26.35;18.33;;;26.80;99.90;;;;;;5078976;28;20437;-71
2023/08/18 07:04:49;;;;;;;21.67;19.45;;;26.80;99.90;;;;;;5096464;27;20453;-71
2023/08/18 07:07:16;;;;;;;24.88;20.02;;;26.90;99.90;;;;;;5088866;28;20438;-71
2023/08/18 07:09:42;;;;;;;26.65;20.60;;;27.00;99.90;;;;;;5065970;28;20471;-71
2023/08/18 07:12:09;;;;;;;24.10;19.92;;;27.10;99.90;;;;;;5100860;27;20953;-71
2023/08/18 07:14:35;;;;;;;26.70;20.75;;;27.10;99.90;;;;;;5096161;27;20596;-71
2023/08/18 07:17:01;;;;;;;22.80;19.50;;;27.20;99.90;;;;;;5099768;27;20413;-71
2023/08/18 07:19:28;;;;;;;22.27;19.87;;;27.20;99.90;;;;;;5062986;28;20504;-71
2023/08/18 07:21:54;;;;;;;24.45;20.00;;;27.30;99.90;;;;;;5084780;28;20913;-71
2023/08/18 07:24:20;;;;;;;25.88;19.23;;;27.30;99.90;;;;;;5095638;27;21139;-71
2023/08/18 07:26:47;;;;;;;23.45;19.48;;;27.40;99.90;;;;;;5083280;28;20396;-71
2023/08/18 07:29:16;;;;;;;22.80;19.10;;;27.40;99.90;;;;;;5081837;28;20496;-71
2023/08/18 07:31:43;;;;;;;26.67;19.23;;;27.40;99.90;;;;;;5096343;27;20945;-71
2023/08/18 07:34:09;;;;;;;21.80;18.42;;;27.50;99.90;;;;;;5077976;28;20408;-71
2023/08/18 07:36:36;;;;;;;22.88;18.88;;;27.60;99.90;;;;;;5079901;28;20517;-71
2023/08/18 07:39:04;;;;;;;23.38;18.95;;;27.60;99.90;;;;;;5060043;28;20398;-72
2023/08/18 07:41:30;;;;;;;24.52;18.48;;;27.70;99.90;;;;;;5093134;28;20412;-71
2023/08/18 07:43:57;;;;;;;22.10;18.47;;;27.70;99.90;;;;;;5081630;28;20398;-71
2023/08/18 07:46:23;;;;;;;21.90;17.92;;;27.70;99.90;;;;;;5074788;28;20436;-71
2023/08/18 07:48:49;;;;;;;20.70;17.80;;;27.80;99.90;;;;;;5082275;28;21226;-71
2023/08/18 07:51:16;;;;;;;23.10;18.38;;;27.80;99.90;;;;;;5079830;28;20426;-71
2023/08/18 07:53:44;;;;;;;21.67;17.10;;;27.80;99.90;;;;;;5093480;28;20449;-71
2023/08/18 07:56:11;;;;;;;20.85;17.35;;;27.90;99.90;;;;;;5077504;28;20482;-71
2023/08/18 07:58:37;;;;;;;22.15;17.33;;;28.00;99.90;;;;;;5093050;28;20411;-71
2023/08/18 08:01:04;;;;;;;24.77;17.52;;;28.10;99.90;;;;;;5097812;28;20502;-71
2023/08/18 08:03:31;;;;;;;22.27;17.08;;;28.10;99.90;;;;;;5093682;28;20904;-71
2023/08/18 08:05:57;;;;;;;21.48;16.83;;;28.10;99.90;;;;;;5077748;28;20412;-71
2023/08/18 08:08:23;;;;;;;22.95;17.08;;;28.20;99.90;;;;;;5094128;28;20972;-71
2023/08/18 08:10:50;;;;;;;19.83;16.65;;;28.20;99.90;;;;;;5081095;28;20938;-71
2023/08/18 08:13:16;;;;;;;21.95;17.10;;;28.30;99.90;;;;;;5077208;28;20507;-71
2023/08/18 08:15:45;;;;;;;25.13;17.80;;;28.40;99.90;;;;;;5097144;27;20420;-71
2023/08/18 08:18:18;;;;;;;22.38;17.65;;;28.40;99.90;;;;;;5094232;28;20469;-71
2023/08/18 08:20:45;;;;;;;23.05;18.60;;;28.50;99.90;;;;;;5100263;27;20421;-71
2023/08/18 08:23:11;;;;;;;22.17;18.25;;;28.60;99.90;;;;;;5103096;27;20406;-71
2023/08/18 08:25:40;;;;;;;23.13;18.45;;;28.70;99.90;;;;;;5076698;28;20975;-71
2023/08/18 08:28:06;;;;;;;21.70;18.50;;;28.80;99.90;;;;;;5068756;27;20408;-71
2023/08/18 08:30:33;;;;;;;22.25;17.92;;;28.90;99.90;;;;;;5082769;28;21359;-71
2023/08/18 08:32:59;;;;;;;20.23;17.92;;;28.90;99.90;;;;;;5101528;27;20796;-72
2023/08/18 08:35:26;;;;;;;23.90;18.63;;;29.00;99.90;;;;;;5099224;27;20448;-71
2023/08/18 08:37:52;;;;;;;22.40;17.60;;;29.00;99.90;;;;;;5081301;28;20430;-71
2023/08/18 08:40:20;;;;;;;22.60;19.00;;;29.10;99.90;;;;;;5084017;28;20403;-71
2023/08/18 08:42:53;;;;;;;27.53;18.50;;;29.20;99.90;;;;;;5071857;28;20441;-71
2023/08/18 08:45:20;;;;;;;19.92;17.40;;;29.20;99.90;;;;;;5095095;27;20401;-71
2023/08/18 08:47:50;;;;;;;23.88;17.30;;;29.30;99.90;;;;;;5087462;27;20408;-71
2023/08/18 08:50:18;;;;;;;23.45;17.67;;;29.40;99.90;;;;;;5081150;27;20404;-71
2023/08/18 08:52:51;;;;;;;21.67;17.38;;;29.40;99.90;;;;;;5066684;28;20424;-71
2023/08/18 08:55:24;;;;;;;22.02;17.58;;;29.50;99.90;;;;;;5078949;27;20973;-71
2023/08/18 08:57:51;;;;;;;21.30;16.80;;;29.60;99.90;;;;;;5077988;28;20424;-71
2023/08/18 09:00:18;;;;;;;22.17;17.10;;;29.60;99.90;;;;;;5081796;28;20440;-71
2023/08/18 09:02:45;;;;;;;24.58;17.38;;;29.70;99.90;;;;;;5079234;28;20412;-71
2023/08/18 09:05:11;;;;;;;20.83;17.02;;;29.80;99.90;;;;;;5081585;28;20748;-71
2023/08/18 09:07:38;;;;;;;21.17;16.73;;;29.90;99.90;;;;;;5085108;28;20408;-71
2023/08/18 09:10:06;;;;;;;22.80;16.67;;;30.00;99.90;;;;;;5083856;27;20411;-71
2023/08/18 09:12:33;;;;;;;20.77;16.73;;;30.10;99.90;;;;;;5075499;28;20469;-71
2023/08/18 09:14:59;;;;;;;21.65;16.67;;;30.20;99.90;;;;;;5084433;27;20818;-71
2023/08/18 09:17:27;;;;;;;20.27;16.42;;;30.30;99.90;;;;;;5098726;28;20412;-71
2023/08/18 09:19:58;;;;;;;23.83;16.30;;;30.40;99.90;;;;;;5063652;28;20406;-71
2023/08/18 09:22:27;;;;;;;20.73;16.67;;;30.50;99.90;;;;;;5101788;27;20462;-71
2023/08/18 09:24:56;;;;;;;23.60;16.35;;;30.50;99.90;;;;;;5095347;27;20888;-71
2023/08/18 09:27:24;;;;;;;23.90;16.48;;;30.60;99.90;;;;;;5098427;27;20804;-71
2023/08/18 09:29:52;;;;;;;20.38;15.93;;;30.80;99.90;;;;;;5081607;28;20428;-71
2023/08/18 09:32:18;;;;;;;23.08;16.45;;;30.80;99.90;;;;;;5086710;27;20407;-71
2023/08/18 09:34:45;;;;;;;23.65;16.55;;;30.80;99.90;;;;;;5099388;27;20450;-71
2023/08/18 09:37:11;;;;;;;22.10;16.20;;;30.80;99.90;;;;;;5083416;27;20424;-71
2023/08/18 09:39:38;;;;;;;24.95;16.88;;;30.90;99.90;;;;;;5095997;27;20418;-71
2023/08/18 09:42:06;;;;;;;24.13;16.13;;;31.00;99.90;;;;;;5100750;27;20408;-71
2023/08/18 09:44:33;;;;;;;23.13;16.17;;;31.00;99.90;;;;;;5107296;27;20415;-71
2023/08/18 09:47:04;;;;;;;20.85;16.15;;;31.10;99.90;;;;;;5080621;28;20423;-71
2023/08/18 09:49:39;;;;;;;20.63;16.25;;;31.20;99.90;;;;;;5092945;27;20822;-71
2023/08/18 09:52:10;;;;;;;22.20;16.15;;;31.20;99.90;;;;;;5102456;27;20513;-71
2023/08/18 09:54:51;;;;;;;21.98;16.45;;;31.30;99.90;;;;;;5096527;27;20490;-71
2023/08/18 09:57:34;;;;;;;20.83;15.48;;;31.30;99.90;;;;;;5081448;28;20416;-71
2023/08/18 10:00:04;;;;;;;20.48;15.90;;;31.40;99.90;;;;;;5065961;28;20406;-71
2023/08/18 10:02:36;;;;;;;18.85;15.80;;;31.50;99.90;;;;;;5086647;27;20447;-71
2023/08/18 10:05:04;;;;;;;23.52;15.80;;;31.60;99.90;;;;;;5095617;27;20433;-71
2023/08/18 10:07:31;;;;;;;19.13;15.88;;;31.60;99.90;;;;;;5100165;28;20409;-71
2023/08/18 10:09:59;;;;;;;19.20;15.17;;;31.60;99.90;;;;;;5101789;27;20414;-71
2023/08/18 10:12:25;;;;;;;19.05;15.45;;;31.70;99.90;;;;;;5077091;27;20410;-71
2023/08/18 10:14:53;;;;;;;21.17;15.80;;;31.70;99.90;;;;;;5098522;27;20410;-71
2023/08/18 10:17:23;;;;;;;21.67;15.85;;;31.70;99.90;;;;;;5086346;27;20400;-71
2023/08/18 10:20:00;;;;;;;19.55;15.18;;;31.80;99.90;;;;;;5097627;27;20404;-72
2023/08/18 10:22:30;;;;;;;21.38;14.77;;;31.90;99.90;;;;;;5062761;28;20404;-72
2023/08/18 10:24:57;;;;;;;21.35;15.18;;;31.90;99.90;;;;;;5107391;27;20434;-71
2023/08/18 10:27:32;;;;;;;22.88;14.95;;;31.90;99.90;;;;;;5099795;27;20545;-71
2023/08/18 10:30:25;;;;;;;20.00;14.57;;;31.90;99.90;;;;;;5106203;27;20404;-71
2023/08/18 10:32:52;;;;;;;21.08;14.75;;;31.80;99.90;;;;;;5066914;27;20780;-71
2023/08/18 10:35:23;;;;;;;21.13;14.33;;;31.90;99.90;;;;;;5101446;27;20469;-71
2023/08/18 10:38:03;;;;;;;18.83;14.68;;;31.90;99.90;;;;;;5102979;27;20429;-71
2023/08/18 10:40:33;;;;;;;18.73;14.33;;;32.00;99.90;;;;;;5065845;28;20487;-71
2023/08/18 10:43:16;;;;;;;20.50;14.52;;;31.90;99.90;;;;;;5085082;27;20404;-72
2023/08/18 10:45:48;;;;;;;20.92;14.32;;;32.00;99.90;;;;;;5101886;27;20425;-71
2023/08/18 10:48:14;;;;;;;21.65;14.65;;;32.00;99.90;;;;;;5083089;27;20407;-72
2023/08/18 10:50:47;;;;;;;19.08;15.20;;;31.90;99.90;;;;;;5080952;28;20442;-71
2023/08/18 10:53:15;;;;;;;18.63;14.23;;;31.90;99.90;;;;;;5101412;27;20434;-72
2023/08/18 10:55:44;;;;;;;17.90;14.32;;;32.00;99.90;;;;;;5076056;28;20406;-72
2023/08/18 10:58:11;;;;;;;21.43;15.33;;;32.00;99.90;;;;;;5080848;27;20422;-71
2023/08/18 11:00:39;;;;;;;20.70;14.10;;;31.90;99.90;;;;;;5096865;27;20404;-71
2023/08/18 11:03:07;;;;;;;20.20;14.40;;;31.90;99.90;;;;;;5085074;27;20399;-72
2023/08/18 11:05:34;;;;;;;19.10;14.83;;;32.00;99.90;;;;;;5064105;28;20422;-71
2023/08/18 11:08:03;;;;;;;20.33;14.68;;;32.00;99.90;;;;;;5098256;27;20420;-71
2023/08/18 11:10:30;;;;;;;22.95;14.75;;;32.00;99.90;;;;;;5083353;28;20410;-71
2023/08/18 11:12:58;;;;;;;19.90;14.93;;;32.10;99.90;;;;;;5076851;28;20604;-71
2023/08/18 11:15:25;;;;;;;20.15;15.00;;;32.10;99.90;;;;;;5099835;27;20408;-71
2023/08/18 11:17:52;;;;;;;22.85;14.38;;;32.10;99.90;;;;;;5086489;28;20431;-71
2023/08/18 11:20:19;;;;;;;18.98;14.40;;;32.00;99.90;;;;;;5081461;28;20420;-71
2023/08/18 11:22:51;;;;;;;20.00;14.45;;;32.00;99.90;;;;;;5099134;27;20440;-71
2023/08/18 11:25:21;;;;;;;20.33;14.98;;;32.00;99.90;;;;;;5060031;27;20644;-71
2023/08/18 11:27:49;;;;;;;19.07;14.33;;;32.00;99.90;;;;;;5066886;28;20404;-71
2023/08/18 11:30:16;;;;;;;20.63;15.05;;;32.00;99.90;;;;;;5100917;27;20425;-71
2023/08/18 11:32:45;;;;;;;19.90;15.30;;;31.90;99.90;;;;;;5101032;27;20457;-71
2023/08/18 11:35:13;;;;;;;21.63;15.18;;;31.90;99.90;;;;;;5088111;28;20431;-71
2023/08/18 11:37:42;;;;;;;18.80;14.35;;;31.90;99.90;;;;;;5066660;28;20950;-71
2023/08/18 11:40:14;;;;;;;20.98;14.45;;;31.90;99.90;;;;;;5078399;28;20497;-71
2023/08/18 11:42:46;;;;;;;19.98;14.00;;;31.90;99.90;;;;;;5069282;28;20412;-71
2023/08/18 11:45:23;;;;;;;18.83;14.40;;;31.90;99.90;;;;;;5096077;28;20401;-71
2023/08/18 11:48:03;;;;;;;20.80;14.80;;;31.90;99.90;;;;;;5096439;28;20412;-71
2023/08/18 11:50:39;;;;;;;19.45;14.40;;;31.90;99.90;;;;;;5101171;27;20442;-71
2023/08/18 11:53:09;;;;;;;20.90;14.00;;;31.90;99.90;;;;;;5089742;28;20410;-71
2023/08/18 11:55:40;;;;;;;22.02;14.82;;;31.80;99.90;;;;;;5104841;27;20509;-71
2023/08/18 11:58:14;;;;;;;21.50;14.57;;;31.80;99.90;;;;;;5081983;28;20519;-71
2023/08/18 12:00:43;;;;;;;19.15;14.45;;;31.80;99.90;;;;;;5082211;28;20453;-71
2023/08/18 12:03:26;;;;;;;20.10;13.93;;;31.80;99.90;;;;;;5084609;28;20389;-71
2023/08/18 12:05:55;;;;;;;20.17;15.20;;;31.80;99.90;;;;;;5103902;27;20492;-71
2023/08/18 12:08:22;;;;;;;21.08;14.85;;;31.80;99.90;;;;;;5083481;28;20485;-71
2023/08/18 12:10:50;;;;;;;23.25;14.32;;;31.70;99.90;;;;;;5098408;27;20478;-72
2023/08/18 12:13:17;;;;;;;19.08;14.55;;;31.70;99.90;;;;;;5098220;27;20412;-71
2023/08/18 12:15:43;;;;;;;19.15;14.60;;;31.70;99.90;;;;;;5101407;27;21188;-71
2023/08/18 12:18:10;;;;;;;20.00;14.47;;;31.70;99.90;;;;;;5083645;28;20791;-71
2023/08/18 12:20:36;;;;;;;18.77;14.48;;;31.70;99.90;;;;;;5086407;27;20411;-71
2023/08/18 12:23:03;;;;;;;21.02;14.57;;;31.70;99.90;;;;;;5082209;28;20425;-71
2023/08/18 12:25:30;;;;;;;20.27;14.70;;;31.70;99.90;;;;;;5104968;27;20813;-71
2023/08/18 12:27:56;;;;;;;21.08;14.63;;;31.70;99.90;;;;;;5095266;27;20415;-71
2023/08/18 12:30:25;;;;;;;18.45;14.77;;;31.70;99.90;;;;;;5080181;27;20499;-72
2023/08/18 12:32:51;;;;;;;18.35;13.82;;;31.80;99.90;;;;;;5097419;27;20425;-71
2023/08/18 12:35:18;;;;;;;18.33;14.30;;;31.80;99.90;;;;;;5100419;27;20498;-72